Time;durP1;ratioP1;P1;durP2;ratioP2;P2;SDS_P1;SDS_P2;PMS_P1;PMS_P2;Temp;Humidity;BMP_temperature;BMP_pressure;BME280_temperature;BME280_humidity;BME280_pressure;Samples;Min_cycle;Max_cycle;Signal;HPM_P1;HPM_P2
2022/09/03 00:01:26;;;;;;;10.70;10.20;;;;;;;14.97;100.00;101125.72;5054562;28;20132;-63
2022/09/03 00:03:54;;;;;;;;;;;;;;;15.00;100.00;101115.50;5053005;28;20036;-63
2022/09/03 00:06:27;;;;;;;10.43;9.93;;;;;;;15.05;100.00;101117.59;5059190;28;20316;-62
2022/09/03 00:09:02;;;;;;;10.50;10.00;;;;;;;15.00;100.00;101120.00;5043652;28;20528;-63
2022/09/03 00:11:40;;;;;;;10.70;10.20;;;;;;;15.00;100.00;101126.19;5071353;28;20036;-62
2022/09/03 00:14:13;;;;;;;10.45;9.95;;;;;;;14.98;100.00;101122.84;5054384;28;20124;-63
2022/09/03 00:16:41;;;;;;;10.90;10.40;;;;;;;15.01;100.00;101117.16;5054959;28;20032;-63
2022/09/03 00:19:07;;;;;;;10.85;10.35;;;;;;;14.91;100.00;101117.47;5054565;28;20021;-63
2022/09/03 00:21:41;;;;;;;10.40;9.90;;;;;;;14.90;100.00;101110.44;5065621;28;20087;-63
2022/09/03 00:24:09;;;;;;;;;;;;;;;14.89;100.00;101111.47;5041257;28;20104;-62
2022/09/03 00:26:39;;;;;;;10.32;9.82;;;;;;;14.88;100.00;101109.81;5054153;28;19909;-63
2022/09/03 00:29:15;;;;;;;10.48;9.98;;;;;;;14.80;100.00;101117.94;5054116;28;20040;-63
2022/09/03 00:31:53;;;;;;;10.48;9.98;;;;;;;14.81;100.00;101124.94;5054049;28;20025;-63
2022/09/03 00:34:30;;;;;;;10.60;10.10;;;;;;;14.86;100.00;101116.38;5055063;28;20024;-63
2022/09/03 00:36:56;;;;;;;10.38;9.88;;;;;;;14.90;100.00;101117.63;5054251;28;20021;-62
2022/09/03 00:39:24;;;;;;;11.60;11.00;;;;;;;14.91;100.00;101106.78;5053382;28;20499;-63
2022/09/03 00:42:11;;;;;;;10.60;10.10;;;;;;;14.98;100.00;101104.16;5062560;28;20032;-62
2022/09/03 00:44:55;;;;;;;10.85;10.35;;;;;;;14.95;100.00;101117.06;5043227;28;20029;-62
2022/09/03 00:47:39;;;;;;;;;;;;;;;14.96;100.00;101108.03;5085507;28;20040;-63
2022/09/03 00:50:24;;;;;;;10.35;9.85;;;;;;;14.92;100.00;101112.94;5075539;28;20366;-63
2022/09/03 00:52:56;;;;;;;;;;;;;;;14.78;100.00;101117.31;5082515;28;20047;-63
2022/09/03 00:55:48;;;;;;;10.90;10.40;;;;;;;14.86;100.00;101116.38;5073493;28;20398;-63
2022/09/03 00:58:32;;;;;;;10.63;10.13;;;;;;;14.94;100.00;101118.91;5039917;28;20040;-62
2022/09/03 01:00:59;;;;;;;10.13;9.63;;;;;;;14.86;100.00;101106.50;5082510;28;20070;-63
2022/09/03 01:04:02;;;;;;;10.80;10.30;;;;;;;14.78;100.00;101124.50;5073109;28;20513;-62
2022/09/03 01:06:37;;;;;;;10.73;10.23;;;;;;;14.77;100.00;101121.00;5068857;28;20500;-63
2022/09/03 01:09:11;;;;;;;10.73;10.23;;;;;;;14.85;100.00;101123.56;5073277;28;20036;-62
2022/09/03 01:11:53;;;;;;;10.40;9.90;;;;;;;14.84;100.00;101124.56;5085704;28;20032;-62
2022/09/03 01:14:45;;;;;;;10.98;10.48;;;;;;;14.82;100.00;101123.09;5072855;28;20480;-63
2022/09/03 01:17:19;;;;;;;10.50;10.00;;;;;;;14.86;100.00;101121.72;5088587;28;20503;-62
2022/09/03 01:20:06;;;;;;;10.27;9.77;;;;;;;14.64;100.00;101121.66;5073262;28;20028;-62
2022/09/03 01:23:02;;;;;;;11.07;10.57;;;;;;;14.80;100.00;101122.47;5073361;28;20066;-62
2022/09/03 01:25:56;;;;;;;10.95;10.45;;;;;;;14.70;100.00;101120.09;5070350;28;20017;-63
2022/09/03 01:28:55;;;;;;;10.50;10.00;;;;;;;14.68;100.00;101123.94;5060787;28;20025;-63
2022/09/03 01:31:52;;;;;;;11.32;10.77;;;;;;;14.75;100.00;101122.19;5072370;28;20025;-62
2022/09/03 01:34:36;;;;;;;10.85;10.35;;;;;;;14.82;100.00;101126.59;5073070;28;20131;-64
2022/09/03 01:37:11;;;;;;;10.65;10.15;;;;;;;14.79;100.00;101124.28;5063649;28;20099;-63
2022/09/03 01:39:48;;;;;;;11.10;10.57;;;;;;;14.61;100.00;101121.19;5077920;28;20123;-63
2022/09/03 01:42:29;;;;;;;10.82;10.32;;;;;;;14.63;100.00;101119.19;5072601;28;20021;-63
2022/09/03 01:45:05;;;;;;;11.05;10.55;;;;;;;14.71;100.00;101127.09;5072194;28;20025;-63
2022/09/03 01:48:00;;;;;;;10.85;10.35;;;;;;;14.91;100.00;101117.47;5075358;28;20445;-63
2022/09/03 01:50:44;;;;;;;11.27;10.68;;;;;;;14.85;100.00;101117.38;5050966;28;20079;-62
2022/09/03 01:53:26;;;;;;;10.15;9.65;;;;;;;14.82;100.00;101113.22;5071892;28;20028;-64
2022/09/03 01:56:11;;;;;;;10.20;9.70;;;;;;;14.84;100.00;101121.06;5054390;28;20358;-64
2022/09/03 01:58:43;;;;;;;10.05;9.55;;;;;;;14.84;100.00;101103.19;5041250;28;20091;-62
2022/09/03 02:01:23;;;;;;;10.38;9.88;;;;;;;14.83;100.00;101114.88;5065140;28;20033;-63
2022/09/03 02:03:50;;;;;;;10.30;9.80;;;;;;;14.46;100.00;101107.84;5053508;28;20108;-61
2022/09/03 02:06:19;;;;;;;10.07;9.57;;;;;;;14.19;100.00;101114.66;5071132;28;20025;-63
2022/09/03 02:08:45;;;;;;;10.60;10.10;;;;;;;14.68;100.00;101114.09;5060354;28;20079;-62
2022/09/03 02:11:10;;;;;;;10.27;9.77;;;;;;;14.53;100.00;101113.28;5070088;28;20048;-63
2022/09/03 02:13:56;;;;;;;10.70;10.20;;;;;;;14.47;100.00;101104.19;5066847;28;20025;-62
2022/09/03 02:16:24;;;;;;;10.52;10.02;;;;;;;14.67;100.00;101107.09;5038846;28;20056;-62
2022/09/03 02:18:53;;;;;;;10.45;9.95;;;;;;;14.65;100.00;101101.13;5052370;28;20496;-62
2022/09/03 02:21:21;;;;;;;10.27;9.77;;;;;;;14.53;100.00;101102.59;5064731;28;20045;-63
2022/09/03 02:23:48;;;;;;;10.50;10.00;;;;;;;14.41;100.00;101098.75;5057389;28;20040;-63
2022/09/03 02:26:20;;;;;;;10.77;10.27;;;;;;;14.61;100.00;101110.50;5056426;28;20021;-63
2022/09/03 02:28:45;;;;;;;10.60;10.10;;;;;;;14.66;100.00;101108.13;5062329;28;20044;-62
2022/09/03 02:31:11;;;;;;;10.90;10.40;;;;;;;14.77;100.00;101104.16;5057718;28;20495;-63
2022/09/03 02:33:39;;;;;;;10.68;10.18;;;;;;;14.63;100.00;101109.31;5066183;28;20388;-62
2022/09/03 02:36:08;;;;;;;10.60;10.10;;;;;;;14.34;100.00;101106.66;5071795;28;20021;-63
2022/09/03 02:38:34;;;;;;;10.20;9.70;;;;;;;14.41;100.00;101107.56;5041837;28;20033;-63
2022/09/03 02:41:00;;;;;;;10.82;10.32;;;;;;;14.20;100.00;101115.50;5066018;28;20390;-63
2022/09/03 02:43:45;;;;;;;10.98;10.48;;;;;;;14.01;100.00;101109.69;5061697;28;20028;-62
2022/09/03 02:46:20;;;;;;;11.57;10.98;;;;;;;14.04;100.00;101096.00;5053241;28;20028;-62
2022/09/03 02:48:46;;;;;;;11.00;10.50;;;;;;;14.13;100.00;101115.41;5067460;28;20090;-63
2022/09/03 02:51:12;;;;;;;10.95;10.45;;;;;;;14.32;100.00;101111.34;5083192;28;20036;-62
2022/09/03 02:53:38;;;;;;;10.95;10.45;;;;;;;14.01;100.00;101104.34;5084570;28;20050;-62
2022/09/03 02:56:04;;;;;;;10.40;9.90;;;;;;;13.99;100.00;101106.38;5078261;28;20024;-62
2022/09/03 02:58:32;;;;;;;11.13;10.63;;;;;;;14.01;100.00;101114.19;5071459;28;20638;-64
2022/09/03 03:00:58;;;;;;;10.98;10.48;;;;;;;13.85;100.00;101109.84;5074369;28;20047;-64
2022/09/03 03:03:24;;;;;;;11.10;10.60;;;;;;;13.82;100.00;101108.38;5080390;28;20020;-63
2022/09/03 03:05:54;;;;;;;10.90;10.40;;;;;;;13.88;100.00;101117.50;5083636;28;20369;-62
2022/09/03 03:08:24;;;;;;;11.02;10.52;;;;;;;13.99;100.00;101106.38;5071279;28;20447;-63
2022/09/03 03:10:55;;;;;;;11.10;10.60;;;;;;;13.95;100.00;101105.06;5075522;28;20032;-62
2022/09/03 03:13:21;;;;;;;10.90;10.40;;;;;;;14.05;100.00;101102.97;5075555;28;20111;-62
2022/09/03 03:15:47;;;;;;;10.85;10.35;;;;;;;14.22;100.00;101102.78;5078513;28;20175;-62
2022/09/03 03:18:14;;;;;;;10.95;10.45;;;;;;;14.17;100.00;101097.16;5090667;28;20133;-62
2022/09/03 03:20:42;;;;;;;10.93;10.43;;;;;;;14.06;100.00;101101.13;5053109;28;20135;-62
2022/09/03 03:23:07;;;;;;;10.70;10.20;;;;;;;14.16;100.00;101093.66;5073509;28;20021;-62
2022/09/03 03:25:34;;;;;;;10.57;10.07;;;;;;;14.19;100.00;101095.16;5051544;28;20441;-63
2022/09/03 03:28:00;;;;;;;11.68;11.07;;;;;;;14.03;100.00;101099.66;5086501;28;20463;-63
2022/09/03 03:30:26;;;;;;;11.20;10.65;;;;;;;13.97;100.00;101094.22;5065902;28;20036;-63
2022/09/03 03:32:54;;;;;;;10.98;10.48;;;;;;;14.05;100.00;101081.63;5076804;28;20089;-62
2022/09/03 03:35:20;;;;;;;10.65;10.15;;;;;;;14.03;100.00;101086.34;5076424;28;20020;-62
2022/09/03 03:37:46;;;;;;;11.13;10.63;;;;;;;14.11;100.00;101088.09;5073441;28;20498;-63
2022/09/03 03:40:12;;;;;;;11.35;10.75;;;;;;;14.15;100.00;101089.34;5086369;28;20040;-62
2022/09/03 03:42:38;;;;;;;11.05;10.55;;;;;;;14.32;100.00;101089.97;5052752;28;20024;-63
2022/09/03 03:45:05;;;;;;;10.85;10.35;;;;;;;14.40;100.00;101099.75;5070843;28;20051;-62
2022/09/03 03:47:31;;;;;;;10.70;10.20;;;;;;;14.49;100.00;101101.34;5076714;28;20093;-63
2022/09/03 03:49:57;;;;;;;10.98;10.48;;;;;;;14.64;100.00;101096.81;5073336;28;20020;-63
2022/09/03 03:52:24;;;;;;;10.68;10.18;;;;;;;14.46;100.00;101091.00;5070872;28;20151;-62
2022/09/03 03:54:50;;;;;;;10.55;10.05;;;;;;;14.47;100.00;101093.53;5070593;28;20017;-62
2022/09/03 03:57:18;;;;;;;10.55;10.05;;;;;;;14.75;100.00;101092.81;5084448;28;20028;-62
2022/09/03 03:59:43;;;;;;;10.13;9.65;;;;;;;14.81;100.00;101092.88;5080670;28;20383;-63
2022/09/03 04:02:08;;;;;;;10.40;9.90;;;;;;;14.82;100.00;101102.53;5070622;28;20024;-63
2022/09/03 04:04:34;;;;;;;10.40;9.90;;;;;;;14.80;100.00;101101.91;5074364;28;20028;-63
2022/09/03 04:07:00;;;;;;;9.95;9.45;;;;;;;14.69;100.00;101104.22;5077742;28;20492;-61
2022/09/03 04:09:25;;;;;;;10.75;10.25;;;;;;;14.90;100.00;101099.75;5078077;28;20396;-62
2022/09/03 04:11:50;;;;;;;10.25;9.75;;;;;;;14.98;100.00;101098.81;5075910;28;20479;-63
2022/09/03 04:14:19;;;;;;;10.38;9.88;;;;;;;14.43;100.00;101102.88;5079041;28;20070;-62
2022/09/03 04:16:45;;;;;;;10.50;10.00;;;;;;;14.67;100.00;101106.28;5072425;28;20027;-62
2022/09/03 04:19:12;;;;;;;10.60;10.10;;;;;;;14.43;100.00;101102.03;5076827;28;20020;-63
2022/09/03 04:21:37;;;;;;;10.50;10.00;;;;;;;14.26;100.00;101096.91;5076940;28;20036;-63
2022/09/03 04:24:04;;;;;;;10.57;10.07;;;;;;;14.17;100.00;101099.84;5088525;28;20032;-63
2022/09/03 04:26:31;;;;;;;10.63;10.13;;;;;;;14.11;100.00;101098.75;5049542;28;20426;-63
2022/09/03 04:29:02;;;;;;;10.52;10.02;;;;;;;14.22;100.00;101090.28;5093424;28;20489;-64
2022/09/03 04:31:28;;;;;;;10.68;10.18;;;;;;;14.13;100.00;101087.88;5082804;28;20047;-63
2022/09/03 04:33:54;;;;;;;10.52;10.02;;;;;;;14.08;100.00;101089.25;5091986;28;20020;-63
2022/09/03 04:36:23;;;;;;;10.70;10.20;;;;;;;14.35;100.00;101103.78;5087770;28;20550;-61
2022/09/03 04:38:52;;;;;;;10.45;9.95;;;;;;;14.61;100.00;101108.66;5075581;28;20115;-63
2022/09/03 04:41:20;;;;;;;10.32;9.82;;;;;;;14.35;100.00;101119.00;5088600;28;20547;-63
2022/09/03 04:43:47;;;;;;;10.40;9.90;;;;;;;14.07;100.00;101127.63;5084024;28;20059;-64
2022/09/03 04:46:13;;;;;;;10.75;10.25;;;;;;;14.08;100.00;101125.78;5091895;28;20031;-63
2022/09/03 04:48:39;;;;;;;10.48;9.98;;;;;;;14.32;100.00;101135.34;5085914;28;20127;-61
2022/09/03 04:51:13;;;;;;;10.30;9.80;;;;;;;14.07;100.00;101127.63;5087753;28;20456;-62
2022/09/03 04:53:41;;;;;;;10.63;10.13;;;;;;;13.92;100.00;101136.63;5073586;28;20029;-62
2022/09/03 04:56:21;;;;;;;10.35;9.85;;;;;;;13.92;100.00;101121.44;5073238;28;20024;-62
2022/09/03 04:58:47;;;;;;;10.50;10.00;;;;;;;13.86;100.00;101132.00;5078140;28;20483;-63
2022/09/03 05:01:18;;;;;;;10.55;10.05;;;;;;;14.08;100.00;101131.94;5081854;28;20024;-63
2022/09/03 05:03:45;;;;;;;10.93;10.43;;;;;;;14.12;100.00;101131.59;5090954;28;20383;-63
2022/09/03 05:06:12;;;;;;;10.20;9.70;;;;;;;14.31;100.00;101126.53;5081908;28;20122;-62
2022/09/03 05:08:39;;;;;;;10.30;9.80;;;;;;;13.94;100.00;101119.41;5092787;28;20091;-63
2022/09/03 05:11:06;;;;;;;10.73;10.23;;;;;;;13.72;100.00;101114.97;5089208;28;20056;-63
2022/09/03 05:13:33;;;;;;;10.75;10.25;;;;;;;13.66;100.00;101113.00;5073482;28;20036;-62
2022/09/03 05:16:09;;;;;;;11.02;10.52;;;;;;;13.86;100.00;101129.34;5076631;28;20043;-63
2022/09/03 05:18:36;;;;;;;10.43;9.93;;;;;;;14.00;100.00;101129.38;5066236;28;20502;-63
2022/09/03 05:21:04;;;;;;;10.88;10.38;;;;;;;13.72;100.00;101129.13;5089268;28;20074;-63
2022/09/03 05:23:31;;;;;;;11.35;10.75;;;;;;;13.96;100.00;101132.59;5073155;28;20021;-63
2022/09/03 05:25:58;;;;;;;10.40;9.90;;;;;;;13.88;100.00;101138.84;5075881;28;20024;-63
2022/09/03 05:28:29;;;;;;;10.82;10.32;;;;;;;13.72;100.00;101125.63;5072571;28;20024;-62
2022/09/03 05:31:15;;;;;;;11.07;10.57;;;;;;;13.92;100.00;101133.94;5070252;28;20460;-62
2022/09/03 05:33:52;;;;;;;10.75;10.25;;;;;;;13.62;100.00;101128.56;5086603;28;20023;-63
2022/09/03 05:36:21;;;;;;;10.68;10.18;;;;;;;13.54;100.00;101118.78;5093284;28;20123;-63
2022/09/03 05:38:48;;;;;;;11.35;10.77;;;;;;;13.67;100.00;101125.38;5076801;28;20025;-63
2022/09/03 05:41:15;;;;;;;10.75;10.25;;;;;;;13.65;100.00;101114.03;5072504;28;20024;-63
2022/09/03 05:43:41;;;;;;;12.60;11.90;;;;;;;13.59;100.00;101106.75;5080094;28;20028;-64
2022/09/03 05:46:14;;;;;;;11.10;10.60;;;;;;;13.93;100.00;101122.28;5076803;28;20072;-62
2022/09/03 05:48:40;;;;;;;10.55;10.05;;;;;;;13.77;100.00;101125.94;5059478;28;20449;-62
2022/09/03 05:51:08;;;;;;;10.60;10.10;;;;;;;14.15;100.00;101124.03;5057446;28;20112;-62
2022/09/03 05:53:35;;;;;;;11.38;10.77;;;;;;;13.89;100.00;101131.66;5052394;28;20032;-62
2022/09/03 05:56:06;;;;;;;10.75;10.25;;;;;;;13.79;100.00;101126.56;5035742;28;20029;-63
2022/09/03 05:58:39;;;;;;;11.30;10.70;;;;;;;13.67;100.00;101128.84;5042659;28;20037;-63
2022/09/03 06:01:19;;;;;;;11.00;10.50;;;;;;;13.78;100.00;101136.41;5055475;28;20033;-63
2022/09/03 06:03:47;;;;;;;10.90;10.40;;;;;;;13.68;100.00;101140.34;5056162;28;20107;-63
2022/09/03 06:06:14;;;;;;;10.88;10.38;;;;;;;13.83;100.00;101150.03;5072625;28;20085;-61
2022/09/03 06:08:41;;;;;;;10.73;10.23;;;;;;;13.95;100.00;101147.75;5052388;28;20031;-63
2022/09/03 06:11:07;;;;;;;10.73;10.23;;;;;;;14.24;100.00;101144.28;5034455;28;20017;-63
2022/09/03 06:13:33;;;;;;;10.38;9.88;;;;;;;14.14;100.00;101149.06;5061229;28;20032;-63
2022/09/03 06:16:01;;;;;;;10.48;9.98;;;;;;;14.18;100.00;101134.38;5057435;28;20021;-62
2022/09/03 06:18:27;;;;;;;10.65;10.15;;;;;;;14.49;100.00;101138.72;5051570;28;20523;-63
2022/09/03 06:20:57;;;;;;;10.50;10.00;;;;;;;14.50;100.00;101143.84;5051574;28;20112;-63
2022/09/03 06:23:24;;;;;;;10.75;10.25;;;;;;;14.45;100.00;101140.88;5052592;28;20063;-63
2022/09/03 06:26:05;;;;;;;10.50;10.00;;;;;;;14.37;100.00;101143.66;5052522;28;20032;-62
2022/09/03 06:28:33;;;;;;;10.90;10.40;;;;;;;14.69;100.00;101133.59;5051359;28;20124;-62
2022/09/03 06:31:00;;;;;;;10.43;9.93;;;;;;;14.60;100.00;101140.91;5052241;28;20064;-61
2022/09/03 06:33:25;;;;;;;10.80;10.30;;;;;;;14.76;100.00;101143.38;5062867;28;20071;-63
2022/09/03 06:35:58;;;;;;;10.70;10.20;;;;;;;14.86;100.00;101143.06;5051741;28;20029;-63
2022/09/03 06:38:26;;;;;;;10.75;10.25;;;;;;;14.90;100.00;101149.69;5051259;28;20551;-63
2022/09/03 06:40:56;;;;;;;10.45;9.95;;;;;;;14.84;100.00;101147.78;5067250;28;20071;-62
2022/09/03 06:43:23;;;;;;;11.10;10.60;;;;;;;14.60;100.00;101148.91;5043967;28;20029;-62
2022/09/03 06:45:53;;;;;;;11.23;10.70;;;;;;;14.83;100.00;101146.94;5044181;28;20032;-66
2022/09/03 06:48:19;;;;;;;11.77;11.18;;;;;;;14.88;100.00;101154.41;5052438;28;20041;-66
2022/09/03 06:51:12;;;;;;;10.80;10.30;;;;;;;15.24;100.00;101162.41;5051075;28;20094;-67
2022/09/03 06:53:40;;;;;;;10.90;10.40;;;;;;;15.06;100.00;101165.50;5050038;28;20040;-67
2022/09/03 06:56:08;;;;;;;10.80;10.30;;;;;;;14.94;100.00;101164.34;5051910;28;20032;-67
2022/09/03 06:58:42;;;;;;;10.75;10.25;;;;;;;15.17;100.00;101162.34;5051158;28;20059;-66
2022/09/03 07:01:19;;;;;;;10.38;9.88;;;;;;;15.20;100.00;101166.47;5051215;28;20103;-67
2022/09/03 07:03:46;;;;;;;10.90;10.40;;;;;;;15.33;100.00;101173.81;5051180;28;20028;-66
2022/09/03 07:06:15;;;;;;;10.43;9.93;;;;;;;15.19;100.00;101168.31;5058053;28;20029;-67
2022/09/03 07:08:41;;;;;;;10.90;10.40;;;;;;;15.27;100.00;101180.72;5045547;28;20368;-68
2022/09/03 07:11:12;;;;;;;10.85;10.35;;;;;;;14.95;100.00;101186.53;5046164;28;20028;-68
2022/09/03 07:13:49;;;;;;;11.57;10.98;;;;;;;15.16;100.00;101200.78;5048942;28;20039;-67
2022/09/03 07:16:20;;;;;;;10.88;10.38;;;;;;;15.28;100.00;101203.78;5046669;28;20038;-67
2022/09/03 07:18:46;;;;;;;11.48;10.88;;;;;;;15.64;100.00;101197.59;5059949;28;20383;-68
2022/09/03 07:21:14;;;;;;;10.70;10.20;;;;;;;15.53;100.00;101212.28;5049212;28;20037;-67
2022/09/03 07:23:41;;;;;;;10.80;10.30;;;;;;;15.56;100.00;101208.38;5052413;28;20032;-67
2022/09/03 07:26:11;;;;;;;10.80;10.30;;;;;;;15.46;100.00;101206.03;5051601;28;20048;-67
2022/09/03 07:28:38;;;;;;;10.40;9.90;;;;;;;15.66;100.00;101203.59;5049799;28;20111;-68
2022/09/03 07:31:08;;;;;;;10.95;10.45;;;;;;;15.73;100.00;101207.16;5028439;28;20040;-67
2022/09/03 07:33:33;;;;;;;10.88;10.38;;;;;;;15.54;100.00;101202.41;5051602;28;20025;-68
2022/09/03 07:36:05;;;;;;;10.30;9.80;;;;;;;15.65;100.00;101209.97;5049386;28;20040;-66
2022/09/03 07:38:31;;;;;;;10.77;10.27;;;;;;;15.90;100.00;101221.91;5049476;28;20053;-67
2022/09/03 07:40:58;;;;;;;10.48;9.98;;;;;;;15.61;100.00;101217.53;5044605;28;20033;-67
2022/09/03 07:43:29;;;;;;;10.60;10.10;;;;;;;15.85;100.00;101213.63;5049182;28;20111;-67
2022/09/03 07:45:55;;;;;;;10.52;10.02;;;;;;;16.15;100.00;101216.13;5048807;28;20029;-67
2022/09/03 07:48:22;;;;;;;11.32;10.80;;;;;;;16.03;100.00;101218.53;5049120;28;20044;-66
2022/09/03 07:50:47;;;;;;;10.23;9.73;;;;;;;15.95;100.00;101221.34;5050247;28;20053;-66
2022/09/03 07:53:16;;;;;;;9.80;9.40;;;;;;;16.12;100.00;101212.00;5053814;28;20052;-67
2022/09/03 07:55:43;;;;;;;11.15;10.65;;;;;;;16.19;100.00;101218.22;5053457;28;20045;-67
2022/09/03 07:58:10;;;;;;;10.25;9.75;;;;;;;16.34;100.00;101211.97;5069885;28;20190;-66
2022/09/03 08:00:36;;;;;;;10.90;10.40;;;;;;;16.41;100.00;101210.16;5053794;28;20111;-67
2022/09/03 08:03:05;;;;;;;10.63;10.13;;;;;;;16.34;100.00;101212.78;5051479;28;20277;-67
2022/09/03 08:05:32;;;;;;;10.77;10.27;;;;;;;16.43;100.00;101218.81;5053293;28;20025;-66
2022/09/03 08:08:02;;;;;;;10.43;9.93;;;;;;;16.40;100.00;101212.00;5053511;28;20122;-67
2022/09/03 08:10:29;;;;;;;11.13;10.63;;;;;;;16.44;100.00;101218.59;5053654;28;20021;-67
2022/09/03 08:12:56;;;;;;;10.82;10.32;;;;;;;16.36;100.00;101221.44;5053385;28;20120;-67
2022/09/03 08:15:22;;;;;;;10.48;9.98;;;;;;;16.59;100.00;101224.66;5054086;28;20020;-67
2022/09/03 08:17:48;;;;;;;11.13;10.63;;;;;;;16.12;100.00;101219.22;5052960;28;20086;-67
2022/09/03 08:20:14;;;;;;;10.30;9.80;;;;;;;16.65;100.00;101223.06;5053245;28;20056;-68
2022/09/03 08:22:40;;;;;;;10.63;10.13;;;;;;;16.59;100.00;101218.47;5053168;28;20025;-68
2022/09/03 08:25:06;;;;;;;10.75;10.25;;;;;;;16.63;100.00;101219.75;5052972;28;20025;-69
2022/09/03 08:27:32;;;;;;;11.02;10.52;;;;;;;16.50;100.00;101225.03;5052946;28;20590;-67
2022/09/03 08:29:57;;;;;;;10.57;10.07;;;;;;;16.68;100.00;101227.22;5052853;28;20028;-68
2022/09/03 08:32:23;;;;;;;10.70;10.20;;;;;;;16.77;100.00;101231.41;5052733;28;20031;-67
2022/09/03 08:34:49;;;;;;;11.07;10.57;;;;;;;16.66;100.00;101226.56;5052319;28;20036;-67
2022/09/03 08:37:15;;;;;;;10.73;10.23;;;;;;;16.45;100.00;101227.47;5053069;28;20023;-66
2022/09/03 08:39:40;;;;;;;11.13;10.63;;;;;;;16.47;100.00;101230.78;5052907;28;20025;-67
2022/09/03 08:42:17;;;;;;;10.60;10.10;;;;;;;16.58;100.00;101236.41;5053109;28;20762;-68
2022/09/03 08:44:58;;;;;;;10.52;10.02;;;;;;;16.41;100.00;101243.09;5046629;28;20481;-67
2022/09/03 08:47:47;;;;;;;10.55;10.05;;;;;;;16.61;100.00;101240.56;5047649;28;20078;-67
2022/09/03 08:50:18;;;;;;;10.15;9.65;;;;;;;16.47;100.00;101230.78;5074635;28;20546;-68
2022/09/03 08:52:49;;;;;;;10.95;10.45;;;;;;;16.72;100.00;101240.03;5073569;28;20036;-68
2022/09/03 08:55:24;;;;;;;10.27;9.77;;;;;;;16.78;100.00;101238.41;5080148;28;20400;-68
2022/09/03 08:58:13;;;;;;;10.50;10.00;;;;;;;16.23;100.00;101224.00;5059448;28;20023;-65
2022/09/03 09:00:43;;;;;;;10.27;9.77;;;;;;;16.59;100.00;101235.38;5073838;28;20032;-66
2022/09/03 09:03:38;;;;;;;9.90;9.50;;;;;;;16.69;100.00;101237.75;5064619;28;20031;-67
2022/09/03 09:06:20;;;;;;;10.25;9.75;;;;;;;16.68;100.00;101230.72;5069343;28;20051;-66
2022/09/03 09:08:48;;;;;;;10.45;9.95;;;;;;;16.65;100.00;101223.06;5073503;28;20475;-66
2022/09/03 09:11:26;;;;;;;10.50;10.00;;;;;;;16.05;100.00;101227.19;5073980;28;20099;-66
2022/09/03 09:14:24;;;;;;;11.05;10.55;;;;;;;16.23;100.00;101221.34;5073223;28;20142;-66
2022/09/03 09:16:56;;;;;;;10.80;10.30;;;;;;;16.37;100.00;101219.59;5061443;28;20039;-68
2022/09/03 09:19:36;;;;;;;10.52;10.02;;;;;;;15.82;100.00;101222.03;5073321;28;20020;-67
2022/09/03 09:22:09;;;;;;;11.10;10.60;;;;;;;15.95;100.00;101221.34;5062482;28;20499;-66
2022/09/03 09:24:42;;;;;;;10.32;9.82;;;;;;;16.39;100.00;101222.91;5073578;28;20055;-66
2022/09/03 09:27:07;;;;;;;10.30;9.80;;;;;;;15.75;100.00;101232.69;5073288;28;20027;-67
2022/09/03 09:29:38;;;;;;;10.40;9.90;;;;;;;16.33;100.00;101221.84;5077642;28;20040;-65
2022/09/03 09:32:07;;;;;;;10.40;9.90;;;;;;;15.75;100.00;101227.34;5090951;28;20020;-68
2022/09/03 09:34:37;;;;;;;10.30;9.80;;;;;;;15.30;100.00;101220.47;5075787;28;20090;-66
2022/09/03 09:37:14;;;;;;;10.40;9.90;;;;;;;14.83;100.00;101218.22;5073692;28;20024;-66
2022/09/03 09:39:52;;;;;;;10.50;10.00;;;;;;;14.98;100.00;101216.38;5093671;28;20081;-66
2022/09/03 09:42:21;;;;;;;10.27;9.77;;;;;;;15.22;100.00;101220.56;5089764;28;20025;-64
2022/09/03 09:44:46;;;;;;;10.93;10.43;;;;;;;15.62;100.00;101211.16;5056554;28;20104;-65
2022/09/03 09:47:20;;;;;;;10.27;9.77;;;;;;;15.22;100.00;101215.22;5075346;28;20091;-66
2022/09/03 09:49:56;;;;;;;10.45;9.95;;;;;;;15.41;100.00;101216.44;5064760;28;20052;-66
2022/09/03 09:52:25;;;;;;;10.95;10.45;;;;;;;15.89;100.00;101214.91;5060868;28;20037;-66
2022/09/03 09:54:55;;;;;;;10.68;10.18;;;;;;;16.60;100.00;101201.41;5050329;28;20017;-66
2022/09/03 09:57:25;;;;;;;10.75;10.25;;;;;;;16.99;100.00;101205.34;5049280;28;20025;-65
2022/09/03 10:00:11;;;;;;;11.07;10.57;;;;;;;16.32;100.00;101206.81;5059757;28;20055;-65
2022/09/03 10:02:39;;;;;;;10.32;9.82;;;;;;;16.64;100.00;101201.84;5053035;28;20033;-66
2022/09/03 10:05:25;;;;;;;10.55;10.05;;;;;;;15.91;100.00;101201.31;5068648;28;20036;-66
2022/09/03 10:07:54;;;;;;;10.48;9.98;;;;;;;14.97;100.00;101204.03;5059568;28;20017;-66
2022/09/03 10:10:20;;;;;;;10.15;9.65;;;;;;;14.85;100.00;101198.34;5052826;28;20094;-66
2022/09/03 10:13:01;;;;;;;10.40;9.90;;;;;;;15.97;100.00;101205.91;5052878;28;20060;-66
2022/09/03 10:15:36;;;;;;;10.05;9.55;;;;;;;16.35;100.00;101200.22;5045936;28;20044;-64
2022/09/03 10:18:33;;;;;;;10.20;9.70;;;;;;;16.68;100.00;101200.44;5056089;28;20029;-66
2022/09/03 10:21:23;;;;;;;10.18;9.68;;;;;;;16.75;100.00;101202.16;5034447;28;20053;-66
2022/09/03 10:24:16;;;;;;;10.00;9.50;;;;;;;16.53;100.00;101197.88;5064882;28;20501;-66
2022/09/03 10:26:45;;;;;;;10.30;9.80;;;;;;;16.77;100.00;101201.94;5062109;28;20045;-66
2022/09/03 10:29:15;;;;;;;10.23;9.73;;;;;;;16.88;100.00;101205.88;5054086;28;20119;-66
2022/09/03 10:32:00;;;;;;;9.73;9.32;;;;;;;16.77;100.00;101201.94;5039807;28;20032;-65
2022/09/03 10:34:36;;;;;;;10.93;10.43;;;;;;;17.00;100.00;101205.13;5055616;28;20036;-66
2022/09/03 10:37:23;;;;;;;9.88;9.48;;;;;;;16.91;100.00;101203.66;5053515;28;20025;-66
2022/09/03 10:40:16;;;;;;;9.90;9.50;;;;;;;17.08;100.00;101220.22;5061724;28;20036;-65
2022/09/03 10:42:57;;;;;;;10.15;9.68;;;;;;;17.24;100.00;101217.16;5016013;28;20032;-65
2022/09/03 10:45:38;;;;;;;10.60;10.10;;;;;;;17.33;100.00;101213.28;5050438;28;20075;-66
2022/09/03 10:48:23;;;;;;;10.48;9.98;;;;;;;17.60;100.00;101206.09;5055851;28;20143;-65
2022/09/03 10:50:56;;;;;;;10.48;9.98;;;;;;;17.91;100.00;101204.72;5082236;28;20369;-66
2022/09/03 10:53:28;;;;;;;10.80;10.30;;;;;;;17.43;100.00;101201.34;5064582;28;20395;-65
2022/09/03 10:56:12;;;;;;;10.50;10.00;;;;;;;18.28;100.00;101202.41;5072080;28;20108;-65
2022/09/03 10:59:00;;;;;;;10.90;10.40;;;;;;;18.49;100.00;101199.50;5077543;28;20484;-68
2022/09/03 11:01:39;;;;;;;10.55;10.05;;;;;;;18.58;100.00;101206.31;5068397;28;20115;-67
2022/09/03 11:04:10;;;;;;;10.52;10.02;;;;;;;18.51;100.00;101205.50;5076110;28;20479;-66
2022/09/03 11:06:44;;;;;;;10.45;9.95;;;;;;;18.10;100.00;101203.91;5069317;28;20040;-66
2022/09/03 11:09:22;;;;;;;10.85;10.35;;;;;;;18.44;100.00;101196.63;5071817;28;20032;-69
2022/09/03 11:12:28;;;;;;;10.30;9.80;;;;;;;17.77;100.00;101197.69;5079215;28;20034;-65
2022/09/03 11:15:23;;;;;;;10.93;10.43;;;;;;;18.47;100.00;101188.13;5028538;28;20131;-65
2022/09/03 11:17:57;;;;;;;10.70;10.20;;;;;;;18.63;100.00;101189.53;5075781;28;20013;-65
2022/09/03 11:20:25;;;;;;;10.70;10.20;;;;;;;18.69;100.00;101200.31;5067941;28;20074;-65
2022/09/03 11:23:01;;;;;;;10.52;10.02;;;;;;;18.29;100.00;101194.19;5087780;28;20093;-65
2022/09/03 11:25:34;;;;;;;10.95;10.45;;;;;;;18.43;100.00;101189.59;5069585;28;20039;-65
2022/09/03 11:28:20;;;;;;;10.60;10.10;;;;;;;18.47;100.00;101198.88;5076164;28;20399;-66